createdAt,value
2022-11-07T00:01:19.759Z,10.67
2022-11-07T00:03:47.727Z,10.62
2022-11-07T00:06:15.995Z,10.70
2022-11-07T00:08:44.034Z,10.93
2022-11-07T00:11:11.921Z,10.88
2022-11-07T00:13:40.066Z,10.87
2022-11-07T00:16:09.677Z,10.82
2022-11-07T00:18:37.782Z,10.72
2022-11-07T00:21:07.451Z,10.76
2022-11-07T00:23:36.380Z,10.84
2022-11-07T00:26:07.874Z,10.86
2022-11-07T00:28:36.765Z,10.83
2022-11-07T00:31:05.304Z,10.75
2022-11-07T00:33:33.349Z,10.56
2022-11-07T00:36:01.653Z,10.35
2022-11-07T00:38:29.598Z,10.06
2022-11-07T00:41:01.216Z,9.82
2022-11-07T00:43:29.755Z,9.68
2022-11-07T00:46:00.431Z,9.45
2022-11-07T00:48:29.068Z,9.37
2022-11-07T00:50:57.183Z,9.41
2022-11-07T00:53:25.242Z,9.38
2022-11-07T00:55:53.174Z,9.34
2022-11-07T00:58:21.088Z,9.50
2022-11-07T01:00:49.008Z,9.68
2022-11-07T01:03:35.911Z,9.61
2022-11-07T01:06:04.573Z,9.52
2022-11-07T01:08:33.088Z,9.74
2022-11-07T01:11:04.023Z,10.05
2022-11-07T01:13:32.505Z,10.18
2022-11-07T01:16:00.410Z,10.42
2022-11-07T01:18:28.693Z,10.64
2022-11-07T01:20:56.651Z,10.63
2022-11-07T01:23:24.564Z,10.69
2022-11-07T01:25:52.696Z,10.72
2022-11-07T01:28:20.728Z,10.85
2022-11-07T01:30:48.632Z,11.03
2022-11-07T01:33:16.964Z,11.13
2022-11-07T01:35:45.097Z,11.16
2022-11-07T01:38:13.164Z,11.44
2022-11-07T01:41:02.094Z,11.73
2022-11-07T01:43:44.574Z,11.84
2022-11-07T01:46:12.852Z,11.90
2022-11-07T01:48:42.455Z,11.75
2022-11-07T01:51:12.477Z,11.61
2022-11-07T01:53:41.092Z,11.43
2022-11-07T01:56:11.893Z,11.37
2022-11-07T01:58:41.980Z,11.34
2022-11-07T02:01:10.141Z,11.55
2022-11-07T02:03:38.558Z,11.67
2022-11-07T02:06:09.550Z,11.70
2022-11-07T02:08:40.438Z,11.81
2022-11-07T02:11:09.936Z,11.64
2022-11-07T02:13:38.022Z,11.49
2022-11-07T02:16:06.492Z,11.39
2022-11-07T02:18:36.427Z,11.20
2022-11-07T02:21:12.363Z,11.23
2022-11-07T02:23:53.570Z,11.27
2022-11-07T02:26:22.491Z,11.23
2022-11-07T02:28:52.354Z,11.31
2022-11-07T02:31:20.511Z,11.36
2022-11-07T02:33:48.521Z,11.25
2022-11-07T02:36:18.290Z,11.21
2022-11-07T02:38:49.196Z,11.29
2022-11-07T02:41:19.303Z,11.49
2022-11-07T02:43:49.827Z,11.59
2022-11-07T02:46:18.011Z,11.66
2022-11-07T02:48:50.931Z,11.60
2022-11-07T02:51:18.980Z,11.43
2022-11-07T02:53:46.910Z,11.40
2022-11-07T02:56:15.216Z,11.31
2022-11-07T02:58:43.345Z,11.13
2022-11-07T03:01:12.499Z,11.10
2022-11-07T03:03:45.313Z,11.23
2022-11-07T03:06:15.286Z,11.28
2022-11-07T03:08:43.322Z,11.16
2022-11-07T03:11:12.089Z,10.58
2022-11-07T03:13:40.752Z,10.27
2022-11-07T03:16:10.272Z,10.12
2022-11-07T03:18:38.413Z,10.19
2022-11-07T03:21:06.835Z,10.48
2022-11-07T03:23:35.874Z,10.79
2022-11-07T03:26:04.687Z,10.98
2022-11-07T03:28:32.714Z,11.02
2022-11-07T03:31:01.506Z,11.14
2022-11-07T03:33:30.027Z,11.27
2022-11-07T03:35:58.713Z,11.23
2022-11-07T03:38:26.949Z,11.12
2022-11-07T03:40:54.957Z,10.85
2022-11-07T03:43:22.969Z,10.65
2022-11-07T03:45:50.889Z,10.76
2022-11-07T03:48:18.901Z,10.97
2022-11-07T03:50:47.034Z,11.15
2022-11-07T03:53:19.320Z,11.36
2022-11-07T03:55:50.473Z,11.51
2022-11-07T03:58:18.716Z,11.62
2022-11-07T04:00:46.613Z,11.77
2022-11-07T04:03:14.796Z,11.80
2022-11-07T04:05:42.886Z,11.85
2022-11-07T04:08:10.771Z,11.83
2022-11-07T04:10:39.003Z,11.77
2022-11-07T04:13:26.979Z,11.67
2022-11-07T04:16:17.574Z,11.65
2022-11-07T04:18:46.654Z,11.59
2022-11-07T04:21:14.769Z,11.59
2022-11-07T04:23:42.840Z,11.74
2022-11-07T04:26:29.858Z,11.75
2022-11-07T04:28:58.307Z,11.65
2022-11-07T04:31:26.314Z,11.51
2022-11-07T04:33:54.420Z,11.51
2022-11-07T04:36:22.515Z,11.52
2022-11-07T04:38:50.422Z,11.55
2022-11-07T04:41:20.221Z,11.52
2022-11-07T04:43:48.568Z,11.48
2022-11-07T04:46:16.882Z,11.50
2022-11-07T04:48:45.119Z,11.47
2022-11-07T04:51:20.546Z,11.52
2022-11-07T04:53:48.564Z,11.60
2022-11-07T04:56:16.427Z,11.58
2022-11-07T04:58:44.502Z,11.52
2022-11-07T05:01:12.778Z,11.52
2022-11-07T05:03:42.240Z,11.57
2022-11-07T05:06:13.958Z,11.36
2022-11-07T05:08:41.961Z,11.19
2022-11-07T05:11:10.077Z,11.28
2022-11-07T05:13:38.097Z,11.17
2022-11-07T05:16:06.693Z,10.93
2022-11-07T05:18:34.800Z,10.90
2022-11-07T05:21:02.938Z,11.01
2022-11-07T05:23:30.936Z,10.97
2022-11-07T05:25:58.908Z,10.71
2022-11-07T05:28:38.309Z,10.85
2022-11-07T05:31:08.870Z,10.96
2022-11-07T05:33:36.778Z,11.08
2022-11-07T05:36:24.159Z,11.18
2022-11-07T05:38:53.429Z,11.09
2022-11-07T05:41:22.098Z,11.20
2022-11-07T05:43:49.952Z,11.00
2022-11-07T05:46:18.017Z,10.87
2022-11-07T05:48:46.360Z,11.00
2022-11-07T05:51:14.297Z,11.17
2022-11-07T05:53:42.569Z,11.37
2022-11-07T05:56:10.873Z,11.48
2022-11-07T05:58:38.999Z,11.55
2022-11-07T06:01:07.221Z,11.69
2022-11-07T06:03:35.406Z,11.80
2022-11-07T06:06:03.670Z,11.85
2022-11-07T06:08:31.575Z,11.81
2022-11-07T06:11:03.961Z,11.89
2022-11-07T06:13:32.386Z,11.97
2022-11-07T06:16:00.399Z,11.94
2022-11-07T06:18:28.527Z,11.92
2022-11-07T06:20:56.602Z,11.95
2022-11-07T06:23:24.734Z,12.03
2022-11-07T06:25:52.842Z,12.07
2022-11-07T06:28:20.813Z,12.11
2022-11-07T06:30:49.116Z,12.26
2022-11-07T06:33:19.035Z,12.37
2022-11-07T06:35:47.979Z,12.41
2022-11-07T06:38:15.913Z,12.31
2022-11-07T06:40:44.236Z,12.32
2022-11-07T06:43:17.628Z,12.15
2022-11-07T06:45:47.175Z,12.10
2022-11-07T06:48:15.816Z,12.13
2022-11-07T06:50:44.255Z,12.09
2022-11-07T06:53:13.953Z,12.07
2022-11-07T06:55:42.470Z,12.24
2022-11-07T06:58:10.456Z,12.41
2022-11-07T07:00:38.471Z,12.67
2022-11-07T07:03:06.570Z,13.02
2022-11-07T07:05:35.568Z,13.33
2022-11-07T07:08:04.917Z,13.29
2022-11-07T07:10:40.952Z,13.16
2022-11-07T07:13:09.322Z,13.18
2022-11-07T07:15:50.412Z,13.13
2022-11-07T07:18:20.216Z,12.93
2022-11-07T07:20:49.385Z,13.09
2022-11-07T07:23:18.717Z,13.30
2022-11-07T07:25:47.605Z,13.29
2022-11-07T07:28:15.516Z,13.23
2022-11-07T07:30:48.671Z,13.29
2022-11-07T07:33:19.233Z,13.41
2022-11-07T07:35:47.443Z,13.50
2022-11-07T07:38:15.383Z,13.52
2022-11-07T07:40:43.456Z,13.33
2022-11-07T07:43:11.645Z,13.40
2022-11-07T07:45:39.678Z,13.51
2022-11-07T07:48:07.851Z,13.50
2022-11-07T07:50:35.970Z,13.56
2022-11-07T07:53:08.855Z,13.80
2022-11-07T07:55:37.730Z,13.82
2022-11-07T07:58:06.001Z,13.44
2022-11-07T08:00:34.131Z,13.11
2022-11-07T08:03:02.937Z,13.18
2022-11-07T08:05:30.851Z,13.32
2022-11-07T08:07:58.764Z,13.29
2022-11-07T08:10:41.690Z,13.57
2022-11-07T08:13:10.628Z,13.83
2022-11-07T08:15:38.618Z,14.07
2022-11-07T08:18:07.193Z,14.10
2022-11-07T08:20:35.309Z,14.39
2022-11-07T08:23:12.957Z,14.78
2022-11-07T08:25:54.438Z,14.84
2022-11-07T08:28:23.353Z,14.79
2022-11-07T08:30:55.440Z,14.95
2022-11-07T08:33:24.099Z,14.94
2022-11-07T08:35:53.889Z,14.88
2022-11-07T08:38:23.080Z,15.05
2022-11-07T08:40:51.979Z,15.02
2022-11-07T08:43:20.459Z,15.04
2022-11-07T08:45:49.348Z,14.99
2022-11-07T08:48:17.927Z,15.16
2022-11-07T08:50:45.794Z,15.35
2022-11-07T08:53:13.950Z,15.45
2022-11-07T08:55:41.910Z,15.35
2022-11-07T08:58:11.439Z,15.32
2022-11-07T09:00:39.336Z,15.31
2022-11-07T09:03:44.184Z,15.12
2022-11-07T09:05:57.598Z,14.86
2022-11-07T09:08:25.952Z,14.80
2022-11-07T09:10:54.643Z,14.91
2022-11-07T09:13:23.314Z,15.00
2022-11-07T09:15:52.053Z,14.90
2022-11-07T09:18:20.386Z,14.73
2022-11-07T09:20:48.351Z,14.66
2022-11-07T09:23:16.712Z,14.87
2022-11-07T09:25:45.914Z,15.10
2022-11-07T09:28:14.458Z,15.31
2022-11-07T09:30:42.622Z,15.62
2022-11-07T09:33:10.701Z,15.89
2022-11-07T09:35:38.722Z,15.99
2022-11-07T09:38:06.718Z,16.02
2022-11-07T09:40:38.852Z,15.78
2022-11-07T09:43:26.072Z,15.54
2022-11-07T09:46:02.650Z,15.49
2022-11-07T09:48:45.063Z,15.61
2022-11-07T09:51:22.149Z,15.56
2022-11-07T09:53:54.070Z,14.89
2022-11-07T09:56:22.337Z,14.62
2022-11-07T09:58:52.380Z,14.52
2022-11-07T10:01:21.511Z,14.46
2022-11-07T10:04:18.264Z,14.67
2022-11-07T10:06:45.584Z,14.98
2022-11-07T10:09:32.592Z,15.14
2022-11-07T10:12:00.561Z,14.48
2022-11-07T10:14:34.194Z,14.37
2022-11-07T10:17:02.383Z,14.40
2022-11-07T10:19:45.461Z,14.50
2022-11-07T10:22:28.203Z,14.69
2022-11-07T10:24:56.448Z,14.95
2022-11-07T10:27:24.685Z,15.19
2022-11-07T10:29:54.664Z,15.36
2022-11-07T10:32:25.274Z,15.47
2022-11-07T10:34:54.742Z,15.56
2022-11-07T10:37:22.897Z,15.49
2022-11-07T10:39:51.322Z,15.49
2022-11-07T10:42:21.212Z,15.53
2022-11-07T10:44:49.819Z,15.64
2022-11-07T10:47:19.731Z,15.77
2022-11-07T10:49:55.687Z,15.80
2022-11-07T10:52:24.581Z,15.87
2022-11-07T10:55:04.570Z,15.90
2022-11-07T10:57:35.398Z,15.94
2022-11-07T11:00:04.671Z,15.92
2022-11-07T11:02:42.358Z,15.82
2022-11-07T11:05:28.922Z,15.80
2022-11-07T11:07:58.239Z,15.97
2022-11-07T11:10:28.571Z,16.15
2022-11-07T11:12:56.969Z,16.12
2022-11-07T11:15:30.120Z,15.85
2022-11-07T11:18:06.396Z,15.56
2022-11-07T11:20:34.591Z,15.45
2022-11-07T11:23:04.783Z,15.50
2022-11-07T11:25:42.880Z,15.51
2022-11-07T11:28:16.083Z,15.63
2022-11-07T11:30:45.820Z,15.64
2022-11-07T11:33:22.700Z,15.63
2022-11-07T11:35:58.956Z,15.63
2022-11-07T11:38:30.169Z,15.75
2022-11-07T11:41:10.552Z,15.87
2022-11-07T11:43:42.085Z,15.92
2022-11-07T11:46:19.482Z,16.03
2022-11-07T11:48:49.642Z,16.15
2022-11-07T11:51:56.450Z,16.21
2022-11-07T11:54:24.870Z,16.12
2022-11-07T11:57:04.933Z,16.01
2022-11-07T11:59:58.941Z,15.99
2022-11-07T12:02:36.243Z,15.72
2022-11-07T12:05:07.442Z,15.63
2022-11-07T12:07:35.615Z,15.61
2022-11-07T12:10:03.585Z,15.72
2022-11-07T12:12:40.996Z,15.84
2022-11-07T12:15:33.045Z,15.79
2022-11-07T12:18:16.129Z,15.86
2022-11-07T12:20:47.680Z,15.58
2022-11-07T12:23:29.882Z,15.37
2022-11-07T12:26:09.138Z,15.49
2022-11-07T12:28:44.614Z,15.68
2022-11-07T12:31:29.648Z,15.78
2022-11-07T12:34:05.491Z,15.93
2022-11-07T12:36:43.595Z,16.05
2022-11-07T12:39:30.317Z,16.08
2022-11-07T12:41:59.673Z,16.17
2022-11-07T12:44:30.916Z,16.26
2022-11-07T12:47:00.551Z,16.56
2022-11-07T12:50:07.075Z,16.77
2022-11-07T12:52:44.021Z,16.85
2022-11-07T12:55:15.141Z,16.83
2022-11-07T12:57:43.201Z,16.79
2022-11-07T13:00:15.719Z,16.75
2022-11-07T13:02:44.902Z,16.83
2022-11-07T13:05:18.406Z,16.91
2022-11-07T13:07:54.571Z,17.06
2022-11-07T13:10:25.446Z,17.11
2022-11-07T13:13:00.182Z,17.14
2022-11-07T13:15:31.803Z,17.15
2022-11-07T13:18:25.847Z,17.11
2022-11-07T13:21:01.115Z,17.09
2022-11-07T13:23:29.873Z,17.10
2022-11-07T13:26:04.218Z,17.12
2022-11-07T13:28:44.136Z,17.15
2022-11-07T13:31:31.687Z,16.91
2022-11-07T13:34:23.635Z,16.81
2022-11-07T13:36:56.762Z,16.68
2022-11-07T13:39:24.958Z,16.70
2022-11-07T13:41:54.174Z,16.77
2022-11-07T13:44:25.880Z,16.70
2022-11-07T13:46:55.692Z,16.56
2022-11-07T13:49:44.601Z,16.39
2022-11-07T13:52:26.918Z,16.28
2022-11-07T13:55:05.916Z,16.24
2022-11-07T13:57:40.483Z,16.16
2022-11-07T14:00:14.530Z,16.11
2022-11-07T14:02:53.118Z,16.15
2022-11-07T14:05:24.006Z,16.19
2022-11-07T14:08:15.174Z,16.04
2022-11-07T14:10:47.108Z,15.95
2022-11-07T14:13:29.115Z,15.98
2022-11-07T14:15:58.787Z,15.96
2022-11-07T14:18:33.818Z,15.95
2022-11-07T14:21:02.506Z,15.97
2022-11-07T14:23:32.642Z,15.96
2022-11-07T14:26:00.675Z,15.85
2022-11-07T14:28:36.030Z,15.74
2022-11-07T14:31:06.064Z,15.69
2022-11-07T14:33:34.121Z,15.63
2022-11-07T14:36:06.451Z,15.66
2022-11-07T14:38:34.451Z,15.65
2022-11-07T14:41:02.783Z,15.44
2022-11-07T14:43:31.667Z,15.37
2022-11-07T14:46:13.163Z,15.37
2022-11-07T14:48:43.229Z,15.42
2022-11-07T14:51:13.449Z,15.31
2022-11-07T14:53:53.465Z,15.20
2022-11-07T14:56:24.435Z,15.19
2022-11-07T14:58:52.611Z,15.21
2022-11-07T15:01:28.951Z,15.17
2022-11-07T15:03:59.573Z,15.10
2022-11-07T15:06:35.871Z,15.08
2022-11-07T15:09:06.325Z,15.18
2022-11-07T15:11:37.598Z,15.18
2022-11-07T15:14:20.867Z,15.18
2022-11-07T15:16:49.863Z,15.26
2022-11-07T15:19:19.920Z,15.26
2022-11-07T15:21:52.864Z,15.29
2022-11-07T15:24:25.821Z,15.34
2022-11-07T15:27:04.233Z,15.37
2022-11-07T15:29:33.928Z,15.38
2022-11-07T15:32:13.344Z,15.30
2022-11-07T15:35:00.875Z,15.23
2022-11-07T15:37:30.136Z,15.14
2022-11-07T15:39:58.279Z,15.18
2022-11-07T15:42:26.237Z,15.21
2022-11-07T15:44:54.167Z,15.20
2022-11-07T15:47:22.352Z,15.19
2022-11-07T15:49:50.529Z,15.16
2022-11-07T15:52:18.562Z,15.09
2022-11-07T15:54:46.630Z,14.89
2022-11-07T15:57:14.562Z,14.68
2022-11-07T15:59:43.777Z,14.60
2022-11-07T16:02:16.149Z,14.58
2022-11-07T16:04:44.518Z,14.53
2022-11-07T16:07:17.939Z,14.53
2022-11-07T16:09:48.745Z,14.57
2022-11-07T16:12:17.958Z,14.59
2022-11-07T16:14:46.201Z,14.58
2022-11-07T16:17:18.415Z,14.60
2022-11-07T16:19:47.202Z,14.58
2022-11-07T16:22:16.105Z,14.46
2022-11-07T16:24:44.098Z,14.26
2022-11-07T16:27:21.040Z,13.90
2022-11-07T16:29:48.995Z,13.69
2022-11-07T16:32:18.704Z,13.67
2022-11-07T16:34:47.608Z,13.67
2022-11-07T16:37:15.586Z,13.63
2022-11-07T16:39:43.543Z,13.70
2022-11-07T16:42:13.759Z,13.90
2022-11-07T16:44:41.961Z,14.13
2022-11-07T16:47:14.361Z,14.18
2022-11-07T16:49:42.995Z,14.11
2022-11-07T16:52:20.370Z,14.13
2022-11-07T16:54:48.417Z,14.25
2022-11-07T16:57:18.238Z,14.49
2022-11-07T16:59:47.261Z,14.68
2022-11-07T17:02:21.837Z,14.74
2022-11-07T17:04:51.286Z,14.76
2022-11-07T17:07:20.763Z,14.72
2022-11-07T17:09:49.375Z,14.70
2022-11-07T17:12:18.938Z,14.73
2022-11-07T17:14:47.022Z,14.77
2022-11-07T17:17:16.145Z,14.79
2022-11-07T17:19:44.440Z,14.74
2022-11-07T17:22:13.007Z,14.68
2022-11-07T17:24:43.180Z,14.68
2022-11-07T17:27:18.834Z,14.73
2022-11-07T17:29:46.686Z,14.69
2022-11-07T17:32:14.566Z,14.67
2022-11-07T17:34:42.470Z,14.61
2022-11-07T17:37:15.418Z,14.56
2022-11-07T17:39:48.322Z,14.59
2022-11-07T17:42:16.342Z,14.67
2022-11-07T17:44:44.326Z,14.72
2022-11-07T17:47:29.549Z,14.63
2022-11-07T17:49:57.977Z,14.55
2022-11-07T17:52:25.997Z,14.59
2022-11-07T17:54:54.938Z,14.55
2022-11-07T17:57:22.858Z,14.48
2022-11-07T17:59:51.924Z,14.49
2022-11-07T18:02:20.197Z,14.58
2022-11-07T18:04:48.513Z,14.50
2022-11-07T18:07:16.773Z,14.45
2022-11-07T18:09:44.919Z,14.54
2022-11-07T18:12:13.125Z,14.53
2022-11-07T18:14:41.300Z,14.57
2022-11-07T18:17:09.242Z,14.64
2022-11-07T18:19:37.544Z,14.57
2022-11-07T18:22:05.624Z,14.46
2022-11-07T18:24:33.688Z,14.51
2022-11-07T18:27:03.636Z,14.58
2022-11-07T18:29:35.045Z,14.57
2022-11-07T18:32:03.067Z,14.48
2022-11-07T18:34:31.088Z,14.46
2022-11-07T18:36:59.360Z,14.46
2022-11-07T18:39:27.328Z,14.38
2022-11-07T18:41:55.379Z,14.27
2022-11-07T18:44:23.547Z,14.30
2022-11-07T18:46:51.644Z,14.35
2022-11-07T18:49:19.718Z,14.51
2022-11-07T18:51:47.683Z,14.58
2022-11-07T18:54:15.573Z,14.58
2022-11-07T18:56:43.904Z,14.71
2022-11-07T18:59:12.105Z,14.79
2022-11-07T19:01:40.505Z,14.78
2022-11-07T19:04:10.453Z,14.85
2022-11-07T19:06:55.878Z,14.87
2022-11-07T19:09:28.580Z,14.85
2022-11-07T19:11:58.101Z,14.88
2022-11-07T19:14:27.441Z,14.79
2022-11-07T19:16:56.243Z,14.62
2022-11-07T19:19:24.420Z,14.50
2022-11-07T19:21:52.527Z,14.17
2022-11-07T19:24:20.659Z,14.06
2022-11-07T19:26:48.898Z,14.05
2022-11-07T19:29:17.184Z,13.96
2022-11-07T19:31:45.353Z,14.10
2022-11-07T19:34:13.316Z,14.15
2022-11-07T19:36:41.425Z,14.16
2022-11-07T19:39:10.585Z,14.14
2022-11-07T19:41:38.553Z,14.20
2022-11-07T19:44:07.287Z,14.16
2022-11-07T19:46:35.521Z,14.07
2022-11-07T19:49:03.659Z,13.94
2022-11-07T19:51:32.074Z,13.81
2022-11-07T19:54:00.432Z,13.98
2022-11-07T19:56:29.895Z,14.17
2022-11-07T19:59:03.686Z,14.27
2022-11-07T20:01:33.011Z,14.32
2022-11-07T20:04:01.678Z,14.33
2022-11-07T20:06:32.611Z,14.26
2022-11-07T20:09:01.708Z,14.17
2022-11-07T20:11:29.783Z,14.09
2022-11-07T20:14:03.013Z,14.01
2022-11-07T20:16:33.258Z,14.02
2022-11-07T20:19:01.676Z,14.07
2022-11-07T20:21:30.521Z,14.03
2022-11-07T20:23:59.917Z,13.99
2022-11-07T20:26:29.718Z,14.03
2022-11-07T20:28:58.670Z,14.08
2022-11-07T20:31:32.972Z,14.04
2022-11-07T20:34:01.804Z,13.86
2022-11-07T20:36:31.477Z,13.80
2022-11-07T20:39:00.326Z,13.79
2022-11-07T20:41:28.659Z,13.78
2022-11-07T20:44:03.718Z,13.75
2022-11-07T20:46:33.468Z,13.80
2022-11-07T20:49:02.376Z,13.76
2022-11-07T20:51:30.961Z,13.69
2022-11-07T20:54:02.001Z,13.65
2022-11-07T20:56:30.382Z,13.54
2022-11-07T20:58:58.651Z,13.44
2022-11-07T21:01:28.340Z,13.44
2022-11-07T21:03:56.432Z,13.52
2022-11-07T21:06:24.810Z,13.66
2022-11-07T21:08:52.879Z,13.70
2022-11-07T21:11:20.951Z,13.70
2022-11-07T21:13:52.980Z,13.70
2022-11-07T21:16:22.107Z,13.74
2022-11-07T21:18:50.658Z,13.75
2022-11-07T21:21:20.557Z,13.73
2022-11-07T21:23:49.487Z,13.72
2022-11-07T21:26:22.481Z,13.71
2022-11-07T21:28:51.072Z,13.66
2022-11-07T21:31:23.703Z,13.59
2022-11-07T21:33:52.194Z,13.62
2022-11-07T21:36:22.241Z,13.70
2022-11-07T21:38:50.581Z,13.76
2022-11-07T21:41:18.585Z,13.79
2022-11-07T21:43:47.211Z,13.84
2022-11-07T21:46:17.171Z,13.88
2022-11-07T21:48:46.010Z,13.91
2022-11-07T21:51:18.269Z,13.94
2022-11-07T21:53:47.025Z,13.87
2022-11-07T21:56:16.910Z,13.85
2022-11-07T21:58:45.501Z,13.88
2022-11-07T22:01:13.765Z,13.91
2022-11-07T22:04:05.319Z,13.99
2022-11-07T22:06:33.294Z,14.15
2022-11-07T22:09:01.223Z,14.21
2022-11-07T22:11:29.433Z,14.22
2022-11-07T22:13:57.617Z,14.32
2022-11-07T22:16:25.751Z,14.30
2022-11-07T22:18:54.034Z,14.19
2022-11-07T22:21:23.245Z,14.13
2022-11-07T22:23:51.422Z,14.04
2022-11-07T22:26:21.074Z,14.01
2022-11-07T22:28:49.532Z,13.97
2022-11-07T22:31:18.892Z,13.92
2022-11-07T22:33:47.431Z,13.94
2022-11-07T22:36:15.972Z,13.92
2022-11-07T22:38:44.358Z,13.90
2022-11-07T22:41:16.793Z,13.85
2022-11-07T22:43:45.147Z,13.84
2022-11-07T22:46:18.394Z,13.90
2022-11-07T22:48:47.081Z,13.88
2022-11-07T22:51:16.595Z,13.71
2022-11-07T22:53:45.085Z,13.70
2022-11-07T22:56:15.120Z,13.75
2022-11-07T22:58:43.561Z,13.79
2022-11-07T23:01:40.639Z,13.83
2022-11-07T23:04:10.362Z,13.84
2022-11-07T23:06:38.333Z,13.76
2022-11-07T23:09:06.254Z,13.74
2022-11-07T23:11:51.084Z,13.70
2022-11-07T23:14:20.673Z,13.47
2022-11-07T23:16:51.056Z,13.27
2022-11-07T23:19:21.063Z,13.33
2022-11-07T23:21:51.169Z,13.49
2022-11-07T23:24:19.443Z,13.65
2022-11-07T23:26:47.799Z,13.75
2022-11-07T23:29:17.308Z,13.90
2022-11-07T23:31:47.089Z,14.01
2022-11-07T23:34:15.842Z,14.06
2022-11-07T23:36:44.806Z,14.07
2022-11-07T23:39:15.373Z,13.98
2022-11-07T23:41:43.534Z,13.81
2022-11-07T23:44:11.708Z,13.87
2022-11-07T23:46:58.321Z,13.94
2022-11-07T23:49:55.461Z,13.95
2022-11-07T23:52:23.413Z,13.92
2022-11-07T23:55:10.528Z,13.97
2022-11-07T23:57:58.896Z,13.99
